createdAt,value
2023-01-15T00:01:51.178Z,25.69
2023-01-15T00:04:18.238Z,25.65
2023-01-15T00:06:44.583Z,25.60
2023-01-15T00:09:13.152Z,25.60
2023-01-15T00:11:39.479Z,25.57
2023-01-15T00:14:05.794Z,25.55
2023-01-15T00:16:32.101Z,25.56
2023-01-15T00:18:59.241Z,25.55
2023-01-15T00:21:26.003Z,25.54
2023-01-15T00:24:11.095Z,25.46
2023-01-15T00:26:56.399Z,25.37
2023-01-15T00:29:22.748Z,25.33
2023-01-15T00:31:53.507Z,25.32
2023-01-15T00:34:19.841Z,25.28
2023-01-15T00:36:46.189Z,25.26
2023-01-15T00:39:12.552Z,25.21
2023-01-15T00:41:38.884Z,25.18
2023-01-15T00:44:05.209Z,25.17
2023-01-15T00:46:31.660Z,25.17
2023-01-15T00:48:58.093Z,25.11
2023-01-15T00:51:24.646Z,25.05
2023-01-15T00:53:50.972Z,25.02
2023-01-15T00:56:17.284Z,24.89
2023-01-15T00:58:43.880Z,24.77
2023-01-15T01:01:10.331Z,24.68
2023-01-15T01:03:36.731Z,24.63
2023-01-15T01:06:03.130Z,24.59
2023-01-15T01:08:29.450Z,24.57
2023-01-15T01:11:05.625Z,24.54
2023-01-15T01:13:32.162Z,24.50
2023-01-15T01:15:58.567Z,24.44
2023-01-15T01:18:24.906Z,24.40
2023-01-15T01:20:51.280Z,24.36
2023-01-15T01:23:17.630Z,24.32
2023-01-15T01:25:43.934Z,24.29
2023-01-15T01:28:10.258Z,24.26
2023-01-15T01:30:37.524Z,24.22
2023-01-15T01:33:04.024Z,24.19
2023-01-15T01:35:30.332Z,24.15
2023-01-15T01:37:56.669Z,24.11
2023-01-15T01:40:22.989Z,24.09
2023-01-15T01:42:49.327Z,24.05
2023-01-15T01:45:25.006Z,24.02
2023-01-15T01:47:54.964Z,23.98
2023-01-15T01:50:21.288Z,23.94
2023-01-15T01:52:57.918Z,23.90
2023-01-15T01:55:24.281Z,23.88
2023-01-15T01:57:50.823Z,23.86
2023-01-15T02:00:17.201Z,23.83
2023-01-15T02:02:44.203Z,23.81
2023-01-15T02:05:11.551Z,23.80
2023-01-15T02:07:37.945Z,23.77
2023-01-15T02:10:04.374Z,23.74
2023-01-15T02:12:36.946Z,23.72
2023-01-15T02:15:04.801Z,23.69
2023-01-15T02:17:36.325Z,23.66
2023-01-15T02:20:16.449Z,23.63
2023-01-15T02:22:58.212Z,23.59
2023-01-15T02:25:39.772Z,23.56
2023-01-15T02:28:26.345Z,23.53
2023-01-15T02:30:57.779Z,23.52
2023-01-15T02:33:25.649Z,23.48
2023-01-15T02:35:57.884Z,23.46
2023-01-15T02:38:24.222Z,23.43
2023-01-15T02:40:51.027Z,23.40
2023-01-15T02:43:17.356Z,23.37
2023-01-15T02:45:44.357Z,23.34
2023-01-15T02:48:14.322Z,23.32
2023-01-15T02:50:42.471Z,23.28
2023-01-15T02:53:09.702Z,23.25
2023-01-15T02:55:37.269Z,23.24
2023-01-15T02:58:04.645Z,23.20
2023-01-15T03:00:31.509Z,23.17
2023-01-15T03:02:59.421Z,23.14
2023-01-15T03:05:32.500Z,23.11
2023-01-15T03:07:59.706Z,23.09
2023-01-15T03:10:49.270Z,23.07
2023-01-15T03:13:24.016Z,23.05
2023-01-15T03:16:13.813Z,23.03
2023-01-15T03:18:44.865Z,23.02
2023-01-15T03:21:11.806Z,22.99
2023-01-15T03:23:38.370Z,22.99
2023-01-15T03:26:04.700Z,22.97
2023-01-15T03:28:31.655Z,22.92
2023-01-15T03:30:58.573Z,22.92
2023-01-15T03:33:26.418Z,22.89
2023-01-15T03:35:56.011Z,22.86
2023-01-15T03:38:23.117Z,22.84
2023-01-15T03:40:49.395Z,22.82
2023-01-15T03:43:34.473Z,22.78
2023-01-15T03:46:02.202Z,22.77
2023-01-15T03:48:34.601Z,22.74
2023-01-15T03:51:05.375Z,22.71
2023-01-15T03:53:42.121Z,22.71
2023-01-15T03:56:23.226Z,22.67
2023-01-15T03:59:00.867Z,22.65
2023-01-15T04:01:28.563Z,22.63
2023-01-15T04:03:55.006Z,22.62
2023-01-15T04:06:21.346Z,22.60
2023-01-15T04:08:47.669Z,22.59
2023-01-15T04:11:13.979Z,22.57
2023-01-15T04:13:40.301Z,22.55
2023-01-15T04:16:06.774Z,22.53
2023-01-15T04:18:33.219Z,22.53
2023-01-15T04:20:59.544Z,22.50
2023-01-15T04:23:25.890Z,22.50
2023-01-15T04:25:52.214Z,22.47
2023-01-15T04:28:18.527Z,22.46
2023-01-15T04:30:45.008Z,22.42
2023-01-15T04:33:11.434Z,22.39
2023-01-15T04:35:37.966Z,22.38
2023-01-15T04:38:04.285Z,22.37
2023-01-15T04:40:49.192Z,22.35
2023-01-15T04:43:34.244Z,22.33
2023-01-15T04:46:00.600Z,22.32
2023-01-15T04:48:26.934Z,22.29
2023-01-15T04:50:53.273Z,22.28
2023-01-15T04:53:19.590Z,22.22
2023-01-15T04:55:45.935Z,22.20
2023-01-15T04:58:12.586Z,22.20
2023-01-15T05:00:38.893Z,22.20
2023-01-15T05:03:05.219Z,22.17
2023-01-15T05:05:32.649Z,22.17
2023-01-15T05:07:59.009Z,22.15
2023-01-15T05:10:25.333Z,22.14
2023-01-15T05:12:51.656Z,22.13
2023-01-15T05:15:17.968Z,22.11
2023-01-15T05:17:44.281Z,22.12
2023-01-15T05:20:10.820Z,22.11
2023-01-15T05:22:37.139Z,22.10
2023-01-15T05:25:03.490Z,22.09
2023-01-15T05:27:30.617Z,22.06
2023-01-15T05:29:56.945Z,22.06
2023-01-15T05:32:23.262Z,22.05
2023-01-15T05:34:49.573Z,22.00
2023-01-15T05:37:15.890Z,22.03
2023-01-15T05:39:42.206Z,22.04
2023-01-15T05:42:08.510Z,22.02
2023-01-15T05:44:34.838Z,22.01
2023-01-15T05:47:05.963Z,22.00
2023-01-15T05:49:32.383Z,21.98
2023-01-15T05:51:58.843Z,21.96
2023-01-15T05:54:25.828Z,21.93
2023-01-15T05:56:52.292Z,21.92
2023-01-15T05:59:19.037Z,21.91
2023-01-15T06:01:45.368Z,21.88
2023-01-15T06:04:14.075Z,21.88
2023-01-15T06:06:40.542Z,21.87
2023-01-15T06:09:06.881Z,21.86
2023-01-15T06:11:33.203Z,21.84
2023-01-15T06:13:59.592Z,21.82
2023-01-15T06:16:25.900Z,21.81
2023-01-15T06:18:52.212Z,21.81
2023-01-15T06:21:18.691Z,21.80
2023-01-15T06:23:45.027Z,21.81
2023-01-15T06:26:12.203Z,21.77
2023-01-15T06:28:38.502Z,21.78
2023-01-15T06:31:05.950Z,21.80
2023-01-15T06:33:32.330Z,21.80
2023-01-15T06:35:58.652Z,21.79
2023-01-15T06:38:24.952Z,21.78
2023-01-15T06:40:51.279Z,21.79
2023-01-15T06:43:36.388Z,21.78
2023-01-15T06:46:21.366Z,21.77
2023-01-15T06:48:47.761Z,21.75
2023-01-15T06:51:18.791Z,21.73
2023-01-15T06:53:45.091Z,21.72
2023-01-15T06:56:11.751Z,21.70
2023-01-15T06:58:38.375Z,21.69
2023-01-15T07:01:08.976Z,21.66
2023-01-15T07:03:35.418Z,21.68
2023-01-15T07:06:05.314Z,21.67
2023-01-15T07:08:31.628Z,21.65
2023-01-15T07:11:01.892Z,21.64
2023-01-15T07:13:28.203Z,21.64
2023-01-15T07:15:54.609Z,21.63
2023-01-15T07:18:20.954Z,21.61
2023-01-15T07:20:47.265Z,21.59
2023-01-15T07:23:14.992Z,21.60
2023-01-15T07:25:42.971Z,21.61
2023-01-15T07:28:09.283Z,21.61
2023-01-15T07:30:35.617Z,21.63
2023-01-15T07:33:01.941Z,21.62
2023-01-15T07:35:28.272Z,21.63
2023-01-15T07:37:54.585Z,21.62
2023-01-15T07:40:21.011Z,21.62
2023-01-15T07:43:05.860Z,21.60
2023-01-15T07:45:50.959Z,21.59
2023-01-15T07:48:35.768Z,21.55
2023-01-15T07:51:02.077Z,21.56
2023-01-15T07:53:28.387Z,21.54
2023-01-15T07:55:54.696Z,21.55
2023-01-15T07:58:21.244Z,21.54
2023-01-15T08:00:47.583Z,21.52
2023-01-15T08:03:14.167Z,21.51
2023-01-15T08:05:40.490Z,21.51
2023-01-15T08:08:06.797Z,21.50
2023-01-15T08:10:53.082Z,21.51
2023-01-15T08:13:37.848Z,21.49
2023-01-15T08:16:04.191Z,21.49
2023-01-15T08:18:30.528Z,21.50
2023-01-15T08:20:56.849Z,21.49
2023-01-15T08:23:23.169Z,21.49
2023-01-15T08:25:49.492Z,21.49
2023-01-15T08:28:15.803Z,21.50
2023-01-15T08:30:42.358Z,21.54
2023-01-15T08:33:08.665Z,21.62
2023-01-15T08:35:35.596Z,21.75
2023-01-15T08:38:06.155Z,21.84
2023-01-15T08:40:32.973Z,21.92
2023-01-15T08:42:59.917Z,22.03
2023-01-15T08:45:26.755Z,22.13
2023-01-15T08:47:57.904Z,22.21
2023-01-15T08:50:24.972Z,22.18
2023-01-15T08:52:51.446Z,22.20
2023-01-15T08:55:17.782Z,22.24
2023-01-15T08:57:45.598Z,22.32
2023-01-15T09:00:12.324Z,22.40
2023-01-15T09:02:38.634Z,22.44
2023-01-15T09:05:05.181Z,22.44
2023-01-15T09:07:31.642Z,22.44
2023-01-15T09:09:58.021Z,22.41
2023-01-15T09:12:26.423Z,22.33
2023-01-15T09:14:58.816Z,22.32
2023-01-15T09:17:29.157Z,22.28
2023-01-15T09:19:55.487Z,22.37
2023-01-15T09:22:21.813Z,22.35
2023-01-15T09:24:48.122Z,22.36
2023-01-15T09:27:14.439Z,22.37
2023-01-15T09:29:40.753Z,22.35
2023-01-15T09:32:08.217Z,22.32
2023-01-15T09:34:34.550Z,22.32
2023-01-15T09:37:00.866Z,22.26
2023-01-15T09:39:27.208Z,22.22
2023-01-15T09:42:16.868Z,22.28
2023-01-15T09:44:43.406Z,22.34
2023-01-15T09:47:29.930Z,22.36
2023-01-15T09:50:09.607Z,22.37
2023-01-15T09:52:40.232Z,22.37
2023-01-15T09:55:09.483Z,22.35
2023-01-15T09:57:35.805Z,22.38
2023-01-15T10:00:03.825Z,22.44
2023-01-15T10:02:41.017Z,22.40
2023-01-15T10:05:16.652Z,22.42
2023-01-15T10:07:44.932Z,22.40
2023-01-15T10:10:18.055Z,22.40
2023-01-15T10:12:45.126Z,22.40
2023-01-15T10:15:14.165Z,22.41
2023-01-15T10:17:48.587Z,22.44
2023-01-15T10:20:33.936Z,22.44
2023-01-15T10:23:09.633Z,22.44
2023-01-15T10:25:42.719Z,22.44
2023-01-15T10:28:13.735Z,22.42
2023-01-15T10:30:41.852Z,22.41
2023-01-15T10:33:25.630Z,22.36
2023-01-15T10:35:59.324Z,22.35
2023-01-15T10:38:25.563Z,22.34
2023-01-15T10:40:54.870Z,22.36
2023-01-15T10:43:21.119Z,22.37
2023-01-15T10:45:48.401Z,22.41
2023-01-15T10:48:33.495Z,22.49
2023-01-15T10:51:01.464Z,22.60
2023-01-15T10:53:37.005Z,22.66
2023-01-15T10:56:05.875Z,22.66
2023-01-15T10:58:37.513Z,22.65
2023-01-15T11:01:04.960Z,22.63
2023-01-15T11:03:41.046Z,22.59
2023-01-15T11:06:08.520Z,22.58
2023-01-15T11:09:07.369Z,22.57
2023-01-15T11:11:50.809Z,22.53
2023-01-15T11:14:35.841Z,22.52
2023-01-15T11:17:07.832Z,22.54
2023-01-15T11:19:37.709Z,22.56
2023-01-15T11:22:11.248Z,22.54
2023-01-15T11:24:38.287Z,22.55
2023-01-15T11:27:05.144Z,22.63
2023-01-15T11:29:32.895Z,22.77
2023-01-15T11:31:59.244Z,22.84
2023-01-15T11:34:25.574Z,22.84
2023-01-15T11:37:01.344Z,22.81
2023-01-15T11:39:28.405Z,22.79
2023-01-15T11:42:23.031Z,22.75
2023-01-15T11:45:17.063Z,22.83
2023-01-15T11:48:11.208Z,22.90
2023-01-15T11:50:50.528Z,22.92
2023-01-15T11:53:18.743Z,22.94
2023-01-15T11:55:52.539Z,22.97
2023-01-15T11:58:18.899Z,23.05
2023-01-15T12:00:45.862Z,23.07
2023-01-15T12:03:13.282Z,23.05
2023-01-15T12:05:44.655Z,23.00
2023-01-15T12:08:30.391Z,22.95
2023-01-15T12:11:26.208Z,22.89
2023-01-15T12:13:58.971Z,22.85
2023-01-15T12:16:43.294Z,22.83
2023-01-15T12:19:17.457Z,22.81
2023-01-15T12:21:53.865Z,22.79
2023-01-15T12:24:31.120Z,22.78
2023-01-15T12:27:04.932Z,22.78
2023-01-15T12:29:39.497Z,22.74
2023-01-15T12:32:16.759Z,22.68
2023-01-15T12:34:50.749Z,22.65
2023-01-15T12:37:22.570Z,22.62
2023-01-15T12:39:52.789Z,22.64
2023-01-15T12:42:39.345Z,22.65
2023-01-15T12:45:25.264Z,22.69
2023-01-15T12:47:54.566Z,22.69
2023-01-15T12:50:39.230Z,22.70
2023-01-15T12:53:22.153Z,22.67
2023-01-15T12:55:48.933Z,22.64
2023-01-15T12:58:29.296Z,22.60
2023-01-15T13:00:59.250Z,22.56
2023-01-15T13:03:30.295Z,22.55
2023-01-15T13:05:57.867Z,22.52
2023-01-15T13:08:25.918Z,22.53
2023-01-15T13:10:53.042Z,22.57
2023-01-15T13:13:20.676Z,22.61
2023-01-15T13:15:53.491Z,22.66
2023-01-15T13:18:25.528Z,22.57
2023-01-15T13:20:52.496Z,22.63
2023-01-15T13:23:39.032Z,22.61
2023-01-15T13:26:14.462Z,22.59
2023-01-15T13:28:43.826Z,22.56
2023-01-15T13:31:10.393Z,22.55
2023-01-15T13:33:39.238Z,22.53
2023-01-15T13:36:25.512Z,22.52
2023-01-15T13:38:52.918Z,22.50
2023-01-15T13:41:40.035Z,22.49
2023-01-15T13:44:06.410Z,22.48
2023-01-15T13:46:33.033Z,22.46
2023-01-15T13:48:59.349Z,22.47
2023-01-15T13:51:27.487Z,22.49
2023-01-15T13:53:53.807Z,22.51
2023-01-15T13:56:27.515Z,22.50
2023-01-15T13:58:57.924Z,22.50
2023-01-15T14:01:30.628Z,22.50
2023-01-15T14:04:06.328Z,22.48
2023-01-15T14:06:51.329Z,22.44
2023-01-15T14:09:20.415Z,22.41
2023-01-15T14:12:05.375Z,22.40
2023-01-15T14:14:44.674Z,22.36
2023-01-15T14:17:23.125Z,22.34
2023-01-15T14:20:08.278Z,22.36
2023-01-15T14:22:47.006Z,22.41
2023-01-15T14:25:32.494Z,22.45
2023-01-15T14:27:58.856Z,22.49
2023-01-15T14:30:34.175Z,22.49
2023-01-15T14:33:00.721Z,22.51
2023-01-15T14:35:28.919Z,22.53
2023-01-15T14:37:58.831Z,22.58
2023-01-15T14:40:32.158Z,22.54
2023-01-15T14:43:04.736Z,22.55
2023-01-15T14:45:38.466Z,22.57
2023-01-15T14:48:25.027Z,22.62
2023-01-15T14:50:53.887Z,22.60
2023-01-15T14:53:33.665Z,22.60
2023-01-15T14:56:04.736Z,22.59
2023-01-15T14:58:33.867Z,22.57
2023-01-15T15:01:02.022Z,22.56
2023-01-15T15:03:34.113Z,22.55
2023-01-15T15:06:00.430Z,22.56
2023-01-15T15:08:27.459Z,22.62
2023-01-15T15:10:54.763Z,22.61
2023-01-15T15:13:31.334Z,22.59
2023-01-15T15:15:57.613Z,22.60
2023-01-15T15:18:43.350Z,22.59
2023-01-15T15:21:15.029Z,22.53
2023-01-15T15:23:56.791Z,22.49
2023-01-15T15:26:27.170Z,22.46
2023-01-15T15:28:57.048Z,22.45
2023-01-15T15:31:26.282Z,22.48
2023-01-15T15:33:55.509Z,22.54
2023-01-15T15:36:22.585Z,22.57
2023-01-15T15:38:55.798Z,22.65
2023-01-15T15:41:42.536Z,22.59
2023-01-15T15:44:31.107Z,22.54
2023-01-15T15:47:15.985Z,22.51
2023-01-15T15:49:42.594Z,22.48
2023-01-15T15:52:28.034Z,22.46
2023-01-15T15:54:58.038Z,22.43
2023-01-15T15:57:24.369Z,22.42
2023-01-15T15:59:51.745Z,22.43
2023-01-15T16:02:18.320Z,22.40
2023-01-15T16:04:48.739Z,22.40
2023-01-15T16:07:17.797Z,22.40
2023-01-15T16:09:47.061Z,22.37
2023-01-15T16:12:13.410Z,22.35
2023-01-15T16:14:39.934Z,22.34
2023-01-15T16:17:06.261Z,22.32
2023-01-15T16:19:32.705Z,22.29
2023-01-15T16:21:59.034Z,22.24
2023-01-15T16:24:26.406Z,22.26
2023-01-15T16:26:54.432Z,22.26
2023-01-15T16:29:23.273Z,22.25
2023-01-15T16:31:49.655Z,22.21
2023-01-15T16:34:17.018Z,22.20
2023-01-15T16:36:45.402Z,22.18
2023-01-15T16:39:19.496Z,22.17
2023-01-15T16:41:46.024Z,22.21
2023-01-15T16:44:22.919Z,22.25
2023-01-15T16:46:56.378Z,22.28
2023-01-15T16:49:22.653Z,22.26
2023-01-15T16:51:57.225Z,22.29
2023-01-15T16:54:29.738Z,22.31
2023-01-15T16:57:02.228Z,22.33
2023-01-15T16:59:28.497Z,22.34
2023-01-15T17:01:59.615Z,22.39
2023-01-15T17:04:35.768Z,22.41
2023-01-15T17:07:07.882Z,22.40
2023-01-15T17:09:34.738Z,22.35
2023-01-15T17:12:06.447Z,22.35
2023-01-15T17:14:32.786Z,22.40
2023-01-15T17:17:14.563Z,22.42
2023-01-15T17:19:40.893Z,22.48
2023-01-15T17:22:08.298Z,22.50
2023-01-15T17:24:34.740Z,22.54
2023-01-15T17:27:01.056Z,22.51
2023-01-15T17:29:27.370Z,22.49
2023-01-15T17:31:53.679Z,22.50
2023-01-15T17:34:23.417Z,22.50
2023-01-15T17:36:49.750Z,22.50
2023-01-15T17:39:16.096Z,22.50
2023-01-15T17:41:42.407Z,22.50
2023-01-15T17:44:09.875Z,22.48
2023-01-15T17:46:36.232Z,22.51
2023-01-15T17:49:02.583Z,22.49
2023-01-15T17:51:30.367Z,22.52
2023-01-15T17:53:56.716Z,22.57
2023-01-15T17:56:41.588Z,22.62
2023-01-15T17:59:26.689Z,22.69
2023-01-15T18:02:11.677Z,22.71
2023-01-15T18:05:00.453Z,22.73
2023-01-15T18:07:27.831Z,22.74
2023-01-15T18:09:56.175Z,22.74
2023-01-15T18:12:22.720Z,22.74
2023-01-15T18:14:49.466Z,22.70
2023-01-15T18:17:15.851Z,22.67
2023-01-15T18:19:42.175Z,22.66
2023-01-15T18:22:10.331Z,22.63
2023-01-15T18:24:36.667Z,22.69
2023-01-15T18:27:02.981Z,22.70
2023-01-15T18:29:29.300Z,22.71
2023-01-15T18:31:55.615Z,22.74
2023-01-15T18:34:22.263Z,22.64
2023-01-15T18:36:48.612Z,22.65
2023-01-15T18:39:15.000Z,22.67
2023-01-15T18:41:41.293Z,22.68
2023-01-15T18:44:29.874Z,22.64
2023-01-15T18:46:57.075Z,22.62
2023-01-15T18:49:23.580Z,22.65
2023-01-15T18:52:08.515Z,22.71
2023-01-15T18:54:35.270Z,22.82
2023-01-15T18:57:01.575Z,22.93
2023-01-15T18:59:27.990Z,23.24
2023-01-15T19:01:56.361Z,23.58
2023-01-15T19:04:22.785Z,23.88
2023-01-15T19:06:49.094Z,24.03
2023-01-15T19:09:16.752Z,24.34
2023-01-15T19:11:46.024Z,24.54
2023-01-15T19:14:31.080Z,24.58
2023-01-15T19:17:16.003Z,24.68
2023-01-15T19:19:43.283Z,24.77
2023-01-15T19:22:28.421Z,24.87
2023-01-15T19:24:54.742Z,24.98
2023-01-15T19:27:21.109Z,25.05
2023-01-15T19:29:47.434Z,25.13
2023-01-15T19:32:13.753Z,25.18
2023-01-15T19:34:40.083Z,25.27
2023-01-15T19:37:06.425Z,25.15
2023-01-15T19:39:32.883Z,24.56
2023-01-15T19:42:18.125Z,24.37
2023-01-15T19:45:03.118Z,24.28
2023-01-15T19:47:49.111Z,24.34
2023-01-15T19:50:18.875Z,25.01
2023-01-15T19:52:45.747Z,25.29
2023-01-15T19:55:12.135Z,25.40
2023-01-15T19:57:38.593Z,25.46
2023-01-15T20:00:05.578Z,25.51
2023-01-15T20:02:34.898Z,25.53
2023-01-15T20:05:01.254Z,25.58
2023-01-15T20:07:27.563Z,25.62
2023-01-15T20:09:53.938Z,25.64
2023-01-15T20:12:39.131Z,25.67
2023-01-15T20:15:05.696Z,25.70
2023-01-15T20:17:32.431Z,25.76
2023-01-15T20:19:58.743Z,25.68
2023-01-15T20:22:26.651Z,25.72
2023-01-15T20:24:53.026Z,25.82
2023-01-15T20:27:19.376Z,25.86
2023-01-15T20:30:05.954Z,25.81
2023-01-15T20:32:32.264Z,25.57
2023-01-15T20:34:58.598Z,25.70
2023-01-15T20:37:24.935Z,25.73
2023-01-15T20:39:52.348Z,25.79
2023-01-15T20:42:37.396Z,25.78
2023-01-15T20:45:10.564Z,25.76
2023-01-15T20:47:56.199Z,25.74
2023-01-15T20:50:22.772Z,25.73
2023-01-15T20:52:49.897Z,25.70
2023-01-15T20:55:16.616Z,25.60
2023-01-15T20:57:42.978Z,25.62
2023-01-15T21:00:11.206Z,25.63
2023-01-15T21:02:37.536Z,25.67
2023-01-15T21:05:04.055Z,25.65
2023-01-15T21:07:30.375Z,25.66
2023-01-15T21:09:56.707Z,25.51
2023-01-15T21:12:23.030Z,25.46
2023-01-15T21:14:49.358Z,25.46
2023-01-15T21:17:15.811Z,25.44
2023-01-15T21:19:42.147Z,25.43
2023-01-15T21:22:08.461Z,25.41
2023-01-15T21:24:34.800Z,25.40
2023-01-15T21:27:01.119Z,25.37
2023-01-15T21:29:27.520Z,25.36
2023-01-15T21:31:54.063Z,25.35
2023-01-15T21:34:20.471Z,25.30
2023-01-15T21:36:46.790Z,25.32
2023-01-15T21:39:13.506Z,25.07
2023-01-15T21:41:58.391Z,24.77
2023-01-15T21:44:31.657Z,24.95
2023-01-15T21:46:58.387Z,25.05
2023-01-15T21:49:24.773Z,25.07
2023-01-15T21:51:51.096Z,25.05
2023-01-15T21:54:17.425Z,25.05
2023-01-15T21:56:45.421Z,25.00
2023-01-15T21:59:12.134Z,24.98
2023-01-15T22:01:38.566Z,24.96
2023-01-15T22:04:05.906Z,24.95
2023-01-15T22:06:32.446Z,24.92
2023-01-15T22:08:58.791Z,24.96
2023-01-15T22:11:25.130Z,24.85
2023-01-15T22:13:51.961Z,24.87
2023-01-15T22:16:18.273Z,24.81
2023-01-15T22:18:45.324Z,24.79
2023-01-15T22:21:15.313Z,24.88
2023-01-15T22:23:42.333Z,24.83
2023-01-15T22:26:21.144Z,24.78
2023-01-15T22:28:47.449Z,24.78
2023-01-15T22:31:14.564Z,24.76
2023-01-15T22:33:40.955Z,24.73
2023-01-15T22:36:11.919Z,24.69
2023-01-15T22:38:38.453Z,24.68
2023-01-15T22:41:04.892Z,24.65
2023-01-15T22:43:31.685Z,24.48
2023-01-15T22:45:58.078Z,24.43
2023-01-15T22:48:24.411Z,24.51
2023-01-15T22:50:50.958Z,24.51
2023-01-15T22:53:17.559Z,24.55
2023-01-15T22:55:43.887Z,24.54
2023-01-15T22:58:10.197Z,24.54
2023-01-15T23:00:36.532Z,24.54
2023-01-15T23:03:05.557Z,24.51
2023-01-15T23:05:36.199Z,24.50
2023-01-15T23:08:02.530Z,24.47
2023-01-15T23:10:28.915Z,24.44
2023-01-15T23:12:55.228Z,24.45
2023-01-15T23:15:21.584Z,24.43
2023-01-15T23:17:47.909Z,24.44
2023-01-15T23:20:14.286Z,24.07
2023-01-15T23:22:40.635Z,24.05
2023-01-15T23:25:08.919Z,24.11
2023-01-15T23:27:35.299Z,24.11
2023-01-15T23:30:01.650Z,23.87
2023-01-15T23:32:27.974Z,23.71
2023-01-15T23:34:54.375Z,23.53
2023-01-15T23:37:20.707Z,23.43
2023-01-15T23:39:47.083Z,23.39
2023-01-15T23:42:32.031Z,23.38
2023-01-15T23:45:16.765Z,23.36
2023-01-15T23:47:43.078Z,23.34
2023-01-15T23:50:09.627Z,23.30
2023-01-15T23:55:02.217Z,23.25
2023-01-15T23:57:28.533Z,23.21
2023-01-15T23:59:54.872Z,23.16
